Time;durP1;ratioP1;P1;durP2;ratioP2;P2;SDS_P1;SDS_P2;PMS_P1;PMS_P2;Temp;Humidity;BMP_temperature;BMP_pressure;BME280_temperature;BME280_humidity;BME280_pressure;Samples;Min_cycle;Max_cycle;Signal;HPM_P1;HPM_P2
2021/03/06 00:00:59;;;;;;;10.93;7.90;;;-1.90;90.00;;;;;;5074401;28;20086;-82
2021/03/06 00:03:30;;;;;;;8.82;8.13;;;-1.90;90.20;;;;;;5075074;28;20401;-82
2021/03/06 00:05:58;;;;;;;12.88;6.60;;;-2.00;88.70;;;;;;5076006;28;20045;-82
2021/03/06 00:08:25;;;;;;;6.38;5.35;;;-2.00;89.20;;;;;;5094745;28;20064;-82
2021/03/06 00:10:55;;;;;;;5.35;4.90;;;-2.00;89.00;;;;;;5093355;28;20515;-82
2021/03/06 00:13:24;;;;;;;6.55;6.05;;;-2.10;89.80;;;;;;5074440;28;20093;-82
2021/03/06 00:15:53;;;;;;;6.95;5.18;;;-2.10;90.10;;;;;;5073511;28;20521;-82
2021/03/06 00:18:21;;;;;;;7.15;6.45;;;-2.20;90.10;;;;;;5055039;28;20040;-82
2021/03/06 00:20:47;;;;;;;7.22;6.53;;;-2.20;90.20;;;;;;5061415;28;20139;-82
2021/03/06 00:23:17;;;;;;;7.85;6.38;;;-2.20;90.10;;;;;;5074727;28;20048;-82
2021/03/06 00:25:44;;;;;;;9.15;6.63;;;-2.30;89.80;;;;;;5058129;28;20041;-82
2021/03/06 00:28:12;;;;;;;8.82;4.97;;;-2.30;90.00;;;;;;5040062;28;20033;-82
2021/03/06 00:30:39;;;;;;;3.78;3.58;;;-2.30;90.00;;;;;;5074133;28;20405;-82
2021/03/06 00:33:06;;;;;;;7.38;6.70;;;-2.30;89.20;;;;;;5061602;28;20099;-82
2021/03/06 00:35:34;;;;;;;8.55;6.90;;;-2.30;89.90;;;;;;5054308;28;20049;-82
2021/03/06 00:38:00;;;;;;;7.15;5.88;;;-2.30;89.90;;;;;;5072305;28;20048;-82
2021/03/06 00:40:31;;;;;;;7.70;6.90;;;-2.30;90.00;;;;;;5067024;28;20107;-82
2021/03/06 00:42:58;;;;;;;6.05;5.13;;;-2.40;90.30;;;;;;5054422;28;20060;-83
2021/03/06 00:45:26;;;;;;;13.23;5.22;;;-2.40;90.20;;;;;;5052983;28;20049;-83
2021/03/06 00:47:53;;;;;;;8.30;5.30;;;-2.40;90.10;;;;;;5033009;28;20061;-83
2021/03/06 00:50:32;;;;;;;4.53;4.13;;;-2.30;90.40;;;;;;5053332;28;20060;-83
2021/03/06 00:53:03;;;;;;;5.28;4.85;;;-2.30;90.40;;;;;;5052573;28;20048;-80
2021/03/06 00:55:31;;;;;;;7.88;7.07;;;-2.30;90.30;;;;;;5052935;28;20071;-86
2021/03/06 00:57:59;;;;;;;6.40;5.07;;;-2.30;90.50;;;;;;5051656;28;20049;-86
2021/03/06 01:00:27;;;;;;;10.70;8.07;;;-2.30;90.60;;;;;;5053365;28;20037;-86
2021/03/06 01:02:57;;;;;;;11.63;8.48;;;-2.20;90.50;;;;;;5052817;28;20045;-89
2021/03/06 01:05:25;;;;;;;7.20;6.45;;;-2.20;90.70;;;;;;5052414;28;20490;-87
2021/03/06 01:07:52;;;;;;;8.18;6.95;;;-2.20;90.60;;;;;;5054149;28;20417;-89
2021/03/06 01:10:31;;;;;;;4.60;4.18;;;-2.10;91.40;;;;;;5074762;28;20052;-89
2021/03/06 01:12:58;;;;;;;7.28;6.60;;;-2.10;90.80;;;;;;5072556;28;20059;-90
2021/03/06 01:15:25;;;;;;;27.88;19.20;;;-2.00;90.70;;;;;;5072977;28;20044;-91
2021/03/06 01:17:52;;;;;;;8.23;7.30;;;-1.90;91.20;;;;;;5073713;28;20044;-90
2021/03/06 01:20:19;;;;;;;14.82;10.80;;;-2.10;90.80;;;;;;5080071;28;20485;-90
2021/03/06 01:22:46;;;;;;;10.60;6.97;;;-2.00;90.80;;;;;;5093527;28;20031;-90
2021/03/06 01:25:14;;;;;;;8.52;7.15;;;-2.00;90.90;;;;;;5092808;28;20040;-91
2021/03/06 01:27:42;;;;;;;90.63;63.80;;;-2.00;90.20;;;;;;5076653;28;20048;-90
2021/03/06 01:31:34;;;;;;;12.98;9.25;;;-1.90;90.60;;;;;;5059608;28;20048;-91
2021/03/06 01:34:02;;;;;;;12.85;7.07;;;-2.00;90.50;;;;;;5092587;28;20086;-91
2021/03/06 01:36:29;;;;;;;8.13;7.45;;;-1.80;90.40;;;;;;5092472;28;20044;-91
2021/03/06 01:38:56;;;;;;;4.82;4.32;;;-1.80;90.40;;;;;;5092743;28;20059;-91
2021/03/06 01:41:23;;;;;;;9.68;8.13;;;-1.90;90.60;;;;;;5093656;28;20043;-91
2021/03/06 01:43:52;;;;;;;7.00;6.35;;;-1.90;90.50;;;;;;5093713;28;20050;-90
2021/03/06 01:46:19;;;;;;;20.73;17.30;;;-1.90;90.30;;;;;;5092980;28;20484;-91
2021/03/06 01:48:46;;;;;;;8.90;8.15;;;-2.00;90.90;;;;;;5093888;28;20078;-91
2021/03/06 01:51:13;;;;;;;9.45;8.27;;;-2.00;90.80;;;;;;5092745;28;20047;-82
2021/03/06 01:53:41;;;;;;;10.70;9.75;;;-2.10;91.10;;;;;;5092566;28;20500;-91
2021/03/06 01:56:08;;;;;;;10.93;9.35;;;-2.10;91.00;;;;;;5093621;28;20130;-90
2021/03/06 01:58:35;;;;;;;9.23;7.95;;;-2.10;91.20;;;;;;5094141;28;20044;-90
2021/03/06 02:01:02;;;;;;;8.30;7.07;;;-2.20;91.30;;;;;;5093288;28;20044;-90
2021/03/06 02:03:29;;;;;;;8.25;7.25;;;-2.30;91.30;;;;;;5092862;28;20396;-90
2021/03/06 02:06:00;;;;;;;7.07;5.63;;;-2.30;91.50;;;;;;5091320;28;20048;-82
2021/03/06 02:08:27;;;;;;;8.07;7.20;;;-2.40;91.40;;;;;;5093002;28;20040;-82
2021/03/06 02:10:54;;;;;;;11.85;8.05;;;-2.40;91.40;;;;;;5093088;28;20052;-82
2021/03/06 02:13:28;;;;;;;7.25;5.93;;;-2.50;91.50;;;;;;5092546;28;20561;-81
2021/03/06 02:16:17;;;;;;;8.90;8.05;;;-2.50;92.00;;;;;;5092804;28;20073;-82
2021/03/06 02:19:28;;;;;;;8.60;7.53;;;-2.60;92.00;;;;;;5093241;28;20048;-82
2021/03/06 02:22:14;;;;;;;6.65;6.03;;;-2.60;92.30;;;;;;5056111;28;20040;-91
2021/03/06 02:24:59;;;;;;;13.20;8.73;;;-2.70;92.30;;;;;;5092380;28;20044;-82
2021/03/06 02:27:38;;;;;;;9.65;7.90;;;-2.70;92.40;;;;;;5092971;28;20052;-82
2021/03/06 02:30:40;;;;;;;9.23;6.45;;;-2.70;92.60;;;;;;5092387;28;20052;-82
2021/03/06 02:33:10;;;;;;;6.53;5.82;;;-2.80;92.60;;;;;;5092296;28;20134;-82
2021/03/06 02:35:42;;;;;;;8.65;6.45;;;-2.70;92.60;;;;;;5093130;28;20048;-81
2021/03/06 02:38:15;;;;;;;8.52;7.72;;;-2.80;92.90;;;;;;5092262;28;20040;-82
2021/03/06 02:40:43;;;;;;;13.15;8.15;;;-2.80;92.80;;;;;;5092409;28;20732;-81
2021/03/06 02:43:11;;;;;;;7.57;6.63;;;-2.90;92.80;;;;;;5092931;28;20064;-82
2021/03/06 02:45:39;;;;;;;9.57;6.53;;;-2.80;93.00;;;;;;5091203;28;20047;-81
2021/03/06 02:48:07;;;;;;;8.82;7.88;;;-2.90;93.50;;;;;;5075802;28;20052;-81
2021/03/06 02:50:35;;;;;;;7.25;6.50;;;-2.90;93.50;;;;;;5074515;28;20044;-91
2021/03/06 02:53:02;;;;;;;9.45;7.10;;;-2.90;93.60;;;;;;5062440;28;20056;-91
2021/03/06 02:55:39;;;;;;;10.93;7.72;;;-2.90;93.50;;;;;;5054461;28;20477;-91
2021/03/06 02:58:16;;;;;;;9.70;7.75;;;-3.00;93.40;;;;;;5055549;28;20547;-91
2021/03/06 03:00:51;;;;;;;8.20;7.05;;;-3.00;93.70;;;;;;5066677;28;20053;-91
2021/03/06 03:03:41;;;;;;;6.82;4.65;;;-3.10;93.70;;;;;;5054799;28;20509;-91
2021/03/06 03:06:11;;;;;;;13.07;9.20;;;-3.10;93.90;;;;;;5074010;28;20071;-91
2021/03/06 03:08:45;;;;;;;7.35;6.50;;;-3.10;93.80;;;;;;5073751;28;20090;-82
2021/03/06 03:11:17;;;;;;;12.65;7.35;;;-3.10;94.00;;;;;;5054630;28;20052;-82
2021/03/06 03:13:56;;;;;;;12.00;7.80;;;-3.10;94.00;;;;;;5070517;28;20049;-83
2021/03/06 03:16:43;;;;;;;10.45;7.38;;;-3.10;94.00;;;;;;5071964;28;20048;-82
2021/03/06 03:19:26;;;;;;;10.68;9.13;;;-3.10;94.00;;;;;;5072339;28;20041;-82
2021/03/06 03:21:55;;;;;;;12.57;7.82;;;-3.20;94.00;;;;;;5054523;28;20041;-81
2021/03/06 03:24:24;;;;;;;11.70;8.82;;;-3.20;94.20;;;;;;5060261;28;20048;-82
2021/03/06 03:26:53;;;;;;;9.57;7.22;;;-3.20;94.40;;;;;;5075924;28;20139;-82
2021/03/06 03:29:21;;;;;;;11.20;8.70;;;-3.20;94.40;;;;;;5062587;28;20091;-82
2021/03/06 03:31:50;;;;;;;12.52;7.57;;;-3.20;94.50;;;;;;5053720;28;20469;-81
2021/03/06 03:34:20;;;;;;;11.35;8.90;;;-3.20;94.60;;;;;;5075714;28;20048;-82
2021/03/06 03:36:48;;;;;;;9.75;7.57;;;-3.20;94.60;;;;;;5065641;28;20502;-81
2021/03/06 03:39:15;;;;;;;13.80;9.55;;;-3.20;94.50;;;;;;5056082;28;20049;-81
2021/03/06 03:41:45;;;;;;;11.93;8.38;;;-3.30;94.60;;;;;;5070617;28;20086;-81
2021/03/06 03:44:15;;;;;;;8.65;6.50;;;-3.20;94.50;;;;;;5075060;28;20044;-81
2021/03/06 03:46:42;;;;;;;8.07;6.85;;;-3.20;94.40;;;;;;5075201;28;20052;-85
2021/03/06 03:49:15;;;;;;;9.18;6.50;;;-3.20;94.40;;;;;;5074889;28;20045;-85
2021/03/06 03:51:42;;;;;;;6.80;5.15;;;-3.30;94.40;;;;;;5075554;28;20131;-85
2021/03/06 03:54:10;;;;;;;5.80;5.22;;;-3.30;94.30;;;;;;5074979;28;20036;-85
2021/03/06 03:56:37;;;;;;;11.20;7.97;;;-3.30;94.30;;;;;;5074707;28;20045;-86
2021/03/06 03:59:44;;;;;;;9.48;7.32;;;-3.30;94.10;;;;;;5075475;28;20060;-86
2021/03/06 04:02:20;;;;;;;7.90;6.38;;;-3.30;94.20;;;;;;5074568;28;20052;-86
2021/03/06 04:04:47;;;;;;;8.48;6.90;;;-3.40;94.30;;;;;;5074630;28;20045;-85
2021/03/06 04:07:14;;;;;;;12.13;9.00;;;-3.40;93.90;;;;;;5075072;28;20041;-85
2021/03/06 04:09:41;;;;;;;5.40;4.97;;;-3.50;94.20;;;;;;5074255;28;20040;-85
2021/03/06 04:12:10;;;;;;;9.32;8.13;;;-3.30;94.60;;;;;;5073567;28;20128;-85
2021/03/06 04:14:37;;;;;;;7.10;5.18;;;-3.40;94.20;;;;;;5056282;28;20117;-82
2021/03/06 04:17:04;;;;;;;12.90;8.68;;;-3.40;94.20;;;;;;5055756;28;20041;-82
2021/03/06 04:19:31;;;;;;;13.32;6.63;;;-3.40;94.10;;;;;;5073079;28;20041;-82
2021/03/06 04:21:58;;;;;;;8.25;7.25;;;-3.60;94.30;;;;;;5073844;28;20573;-82
2021/03/06 04:24:25;;;;;;;10.68;7.22;;;-3.60;94.50;;;;;;5074185;28;20041;-82
2021/03/06 04:26:52;;;;;;;8.40;7.45;;;-3.70;94.60;;;;;;5078974;28;20049;-91
2021/03/06 04:29:20;;;;;;;9.77;8.35;;;-3.80;94.70;;;;;;5076539;28;20044;-91
2021/03/06 04:31:47;;;;;;;8.38;7.45;;;-3.70;94.80;;;;;;5076747;28;20070;-92
2021/03/06 04:34:15;;;;;;;9.07;4.70;;;-3.70;94.90;;;;;;5077513;28;20400;-92
2021/03/06 04:36:42;;;;;;;9.65;7.18;;;-3.80;94.60;;;;;;5077817;28;20090;-92
2021/03/06 04:39:09;;;;;;;8.10;7.22;;;-3.70;94.90;;;;;;5078944;28;20054;-93
2021/03/06 04:41:36;;;;;;;7.60;5.78;;;-3.80;94.40;;;;;;5077540;28;20049;-92
2021/03/06 04:44:05;;;;;;;9.40;8.00;;;-3.90;94.70;;;;;;5076315;28;20084;-92
2021/03/06 04:46:32;;;;;;;9.48;8.50;;;-3.90;95.00;;;;;;5058875;28;20049;-92
2021/03/06 04:49:02;;;;;;;11.35;8.77;;;-3.90;94.70;;;;;;5075407;28;20041;-92
2021/03/06 04:51:30;;;;;;;8.43;7.47;;;-4.00;94.90;;;;;;5076138;28;20076;-92
2021/03/06 04:53:57;;;;;;;11.80;7.88;;;-4.00;94.40;;;;;;5075076;28;20047;-92
2021/03/06 04:56:25;;;;;;;10.90;6.97;;;-4.10;94.40;;;;;;5075022;28;20498;-82
2021/03/06 04:59:02;;;;;;;11.02;8.20;;;-4.10;94.80;;;;;;5074513;28;20091;-82
2021/03/06 05:01:29;;;;;;;8.23;7.40;;;-4.20;94.90;;;;;;5073328;28;20045;-82
2021/03/06 05:03:57;;;;;;;9.20;7.00;;;-4.30;95.00;;;;;;5073603;28;20052;-81
2021/03/06 05:06:45;;;;;;;7.13;5.88;;;-4.30;95.30;;;;;;5072730;28;20060;-82
2021/03/06 05:09:12;;;;;;;7.45;6.80;;;-4.20;95.10;;;;;;5072133;28;20420;-82
2021/03/06 05:11:39;;;;;;;9.18;8.35;;;-4.10;95.40;;;;;;5073555;28;20045;-82
2021/03/06 05:14:06;;;;;;;10.70;8.40;;;-4.20;95.50;;;;;;5073127;28;20057;-82
2021/03/06 05:16:33;;;;;;;10.80;8.25;;;-4.20;95.40;;;;;;5073205;28;20081;-82
2021/03/06 05:19:00;;;;;;;9.75;6.95;;;-4.20;95.50;;;;;;5073658;28;20076;-82
2021/03/06 05:21:26;;;;;;;11.15;5.40;;;-4.10;95.40;;;;;;5088616;28;20500;-82
2021/03/06 05:23:53;;;;;;;9.38;7.80;;;-4.10;95.30;;;;;;5092374;28;20075;-82
2021/03/06 05:26:20;;;;;;;5.47;5.07;;;-4.20;95.10;;;;;;5093912;28;20072;-82
2021/03/06 05:28:47;;;;;;;9.13;7.68;;;-4.10;94.90;;;;;;5075232;28;20153;-81
2021/03/06 05:31:14;;;;;;;9.65;6.93;;;-4.10;95.00;;;;;;5092296;28;20071;-82
2021/03/06 05:33:41;;;;;;;12.70;7.85;;;-4.00;94.80;;;;;;5092023;28;20553;-80
2021/03/06 05:36:07;;;;;;;11.50;6.53;;;-4.00;94.70;;;;;;5093217;28;22367;-82
2021/03/06 05:38:34;;;;;;;7.82;6.90;;;-4.10;94.50;;;;;;5093652;28;20052;-83
2021/03/06 05:41:04;;;;;;;8.23;7.18;;;-4.10;94.40;;;;;;5089558;28;20062;-84
2021/03/06 05:43:32;;;;;;;6.03;5.20;;;-4.10;94.50;;;;;;5073439;28;20126;-83
2021/03/06 05:46:00;;;;;;;6.75;6.05;;;-4.00;94.50;;;;;;5071197;28;20064;-83
2021/03/06 05:48:34;;;;;;;8.80;7.22;;;-4.10;94.10;;;;;;5052666;28;20052;-83
2021/03/06 05:51:03;;;;;;;7.95;7.13;;;-4.20;94.50;;;;;;5052509;28;20068;-83
2021/03/06 05:53:31;;;;;;;6.32;5.70;;;-4.10;94.30;;;;;;5034916;28;20390;-83
2021/03/06 05:56:01;;;;;;;10.27;7.75;;;-4.10;94.60;;;;;;5056645;28;20045;-82
2021/03/06 05:58:33;;;;;;;5.95;4.93;;;-3.90;94.30;;;;;;5053111;28;20084;-83
2021/03/06 06:01:01;;;;;;;6.80;5.82;;;-3.90;94.20;;;;;;5062410;28;20574;-82
2021/03/06 06:03:30;;;;;;;10.77;6.97;;;-3.90;94.00;;;;;;5072481;28;20045;-79
2021/03/06 06:06:00;;;;;;;7.30;5.47;;;-3.90;94.00;;;;;;5052244;28;20440;-79
2021/03/06 06:08:30;;;;;;;14.13;7.63;;;-3.90;94.20;;;;;;5055947;28;20127;-83
2021/03/06 06:10:58;;;;;;;9.57;7.35;;;-4.00;94.20;;;;;;5072890;28;20048;-83
2021/03/06 06:13:28;;;;;;;9.55;7.57;;;-4.00;94.20;;;;;;5059032;28;20041;-82
2021/03/06 06:15:55;;;;;;;8.73;7.15;;;-3.90;94.00;;;;;;5053365;28;20053;-83
2021/03/06 06:18:24;;;;;;;10.02;6.68;;;-3.90;93.90;;;;;;5071689;28;20456;-83
2021/03/06 06:20:51;;;;;;;9.95;7.20;;;-3.90;93.70;;;;;;5063567;28;20083;-83
2021/03/06 06:23:19;;;;;;;8.55;7.18;;;-3.90;93.70;;;;;;5035519;28;20406;-82
2021/03/06 06:25:47;;;;;;;11.43;7.28;;;-3.90;93.40;;;;;;5068551;28;20045;-82
2021/03/06 06:28:17;;;;;;;10.45;7.15;;;-3.70;93.30;;;;;;5068303;28;20049;-82
2021/03/06 06:31:10;;;;;;;9.10;5.40;;;-3.70;93.20;;;;;;5051330;28;20049;-83
2021/03/06 06:33:40;;;;;;;9.85;7.30;;;-3.70;93.00;;;;;;5067542;28;20040;-82
2021/03/06 06:36:27;;;;;;;6.47;5.80;;;-3.60;92.90;;;;;;5069018;28;20045;-82
2021/03/06 06:38:54;;;;;;;8.18;6.15;;;-3.60;92.90;;;;;;5035200;28;20111;-83
2021/03/06 06:41:21;;;;;;;7.15;5.95;;;-3.50;92.70;;;;;;5063439;28;20048;-82
2021/03/06 06:43:49;;;;;;;13.75;8.55;;;-3.40;92.60;;;;;;5055218;28;20048;-82
2021/03/06 06:46:29;;;;;;;6.85;6.18;;;-3.40;92.50;;;;;;5050452;28;20374;-82
2021/03/06 06:48:59;;;;;;;7.88;6.30;;;-3.30;92.60;;;;;;5050665;28;20141;-82
2021/03/06 06:51:26;;;;;;;8.30;5.38;;;-3.20;92.30;;;;;;5052386;28;20084;-83
2021/03/06 06:54:13;;;;;;;8.55;6.38;;;-3.10;92.00;;;;;;5069290;28;20139;-83
2021/03/06 06:56:43;;;;;;;9.77;8.85;;;-3.00;91.50;;;;;;5071709;28;20098;-83
2021/03/06 06:59:17;;;;;;;7.50;6.18;;;-2.60;90.40;;;;;;5076537;28;20489;-83
2021/03/06 07:01:47;;;;;;;9.10;7.50;;;-1.90;88.90;;;;;;5057944;28;20060;-80
2021/03/06 07:04:15;;;;;;;7.05;5.25;;;-1.50;84.20;;;;;;5075922;28;20057;-81
2021/03/06 07:06:57;;;;;;;8.77;6.32;;;-1.10;83.70;;;;;;5041478;28;20037;-80
2021/03/06 07:09:26;;;;;;;7.70;6.88;;;-0.80;82.10;;;;;;5075612;28;20577;-82
2021/03/06 07:11:53;;;;;;;7.75;6.05;;;-0.50;79.40;;;;;;5075735;28;20072;-81
2021/03/06 07:14:38;;;;;;;4.68;4.30;;;-0.30;79.00;;;;;;5076041;28;20057;-82
2021/03/06 07:17:05;;;;;;;7.70;7.07;;;-0.30;77.80;;;;;;5075651;28;20523;-81
2021/03/06 07:19:39;;;;;;;9.25;4.75;;;-0.10;76.60;;;;;;5075746;28;20059;-81
2021/03/06 07:22:06;;;;;;;8.18;7.38;;;-0.10;76.40;;;;;;5053854;28;20087;-81
2021/03/06 07:24:34;;;;;;;9.25;6.28;;;-0.30;76.30;;;;;;5054303;28;20068;-81
2021/03/06 07:27:03;;;;;;;6.05;5.47;;;-0.50;77.20;;;;;;5054693;28;20497;-81
2021/03/06 07:30:04;;;;;;;24.20;4.90;;;-0.40;77.50;;;;;;5053827;28;20464;-82
2021/03/06 07:32:35;;;;;;;6.60;5.95;;;-0.20;77.10;;;;;;5037219;28;20037;-80
2021/03/06 07:35:05;;;;;;;5.40;4.88;;;0.10;74.90;;;;;;5055432;28;20053;-82
2021/03/06 07:37:38;;;;;;;6.45;5.43;;;0.20;74.70;;;;;;5053142;28;20053;-83
2021/03/06 07:40:10;;;;;;;6.05;5.45;;;-0.10;75.00;;;;;;5055930;28;20049;-88
2021/03/06 07:42:46;;;;;;;5.65;4.85;;;-0.10;75.90;;;;;;5055481;28;20045;-88
2021/03/06 07:45:18;;;;;;;6.28;5.72;;;0.40;74.70;;;;;;5054006;28;20083;-89
2021/03/06 07:47:49;;;;;;;4.10;3.80;;;1.20;71.80;;;;;;5055313;28;20045;-81
2021/03/06 07:50:24;;;;;;;8.60;6.82;;;1.30;70.50;;;;;;5036775;28;20496;-81
2021/03/06 07:52:53;;;;;;;6.90;6.25;;;1.50;69.70;;;;;;5052767;28;20110;-80
2021/03/06 07:55:22;;;;;;;5.55;4.90;;;1.80;68.00;;;;;;5055248;28;20080;-80
2021/03/06 07:58:22;;;;;;;8.73;5.22;;;2.10;66.70;;;;;;5054563;28;20432;-80
2021/03/06 08:01:24;;;;;;;5.30;4.75;;;1.80;65.70;;;;;;5028765;28;20045;-80
2021/03/06 08:03:51;;;;;;;5.28;4.78;;;1.50;67.00;;;;;;5073022;28;20097;-80
2021/03/06 08:06:20;;;;;;;7.75;4.28;;;1.50;68.00;;;;;;5068609;28;20045;-80
2021/03/06 08:08:47;;;;;;;10.05;6.20;;;1.60;70.20;;;;;;5051082;28;20047;-80
2021/03/06 08:11:15;;;;;;;7.15;6.43;;;1.60;67.80;;;;;;5055316;28;20486;-80
2021/03/06 08:13:53;;;;;;;6.47;5.95;;;1.50;67.70;;;;;;5054498;28;20057;-87
2021/03/06 08:16:23;;;;;;;6.57;5.68;;;1.60;68.90;;;;;;5053218;28;20053;-87
2021/03/06 08:19:11;;;;;;;5.38;4.93;;;1.70;68.80;;;;;;5057864;28;20084;-87
2021/03/06 08:21:41;;;;;;;8.65;6.70;;;1.60;67.70;;;;;;5073411;28;20136;-87
2021/03/06 08:24:14;;;;;;;8.05;6.28;;;1.60;67.30;;;;;;5074692;28;20075;-87
2021/03/06 08:26:55;;;;;;;5.57;5.15;;;1.50;68.80;;;;;;5075132;28;20044;-80
2021/03/06 08:29:27;;;;;;;6.03;5.43;;;1.50;69.10;;;;;;5074099;28;20047;-80
2021/03/06 08:32:24;;;;;;;8.43;7.72;;;1.70;70.20;;;;;;5060555;28;20045;-80
2021/03/06 08:34:56;;;;;;;10.80;6.20;;;2.00;67.30;;;;;;5060906;28;20073;-86
2021/03/06 08:37:24;;;;;;;8.20;7.35;;;1.70;67.70;;;;;;5053818;28;20671;-88
2021/03/06 08:39:53;;;;;;;7.88;6.95;;;1.40;67.40;;;;;;5036413;28;20478;-83
2021/03/06 08:42:31;;;;;;;5.47;5.07;;;1.30;68.20;;;;;;5036748;28;20119;-83
2021/03/06 08:45:18;;;;;;;6.15;4.95;;;1.30;69.20;;;;;;5052484;28;20075;-86
2021/03/06 08:47:51;;;;;;;4.40;4.00;;;1.50;69.50;;;;;;5034294;28;20051;-91
2021/03/06 08:50:20;;;;;;;5.47;4.97;;;1.60;67.50;;;;;;5010287;28;20049;-82
2021/03/06 08:53:13;;;;;;;5.95;5.15;;;1.70;67.60;;;;;;5055510;28;20382;-84
2021/03/06 08:55:44;;;;;;;7.80;6.28;;;2.00;67.10;;;;;;5073242;28;20074;-82
2021/03/06 08:58:13;;;;;;;6.70;5.13;;;1.90;65.40;;;;;;5072322;28;20040;-82
2021/03/06 09:00:54;;;;;;;5.82;4.05;;;1.50;68.10;;;;;;5056943;28;20040;-89
2021/03/06 09:03:27;;;;;;;6.43;4.38;;;1.40;69.60;;;;;;5057465;28;20048;-90
2021/03/06 09:05:59;;;;;;;6.65;6.15;;;1.40;68.20;;;;;;5056721;28;20048;-90
2021/03/06 09:08:28;;;;;;;7.00;6.50;;;1.60;68.10;;;;;;5056706;28;20086;-92
2021/03/06 09:10:58;;;;;;;8.23;7.63;;;1.40;68.70;;;;;;5073413;28;20502;-91
2021/03/06 09:13:28;;;;;;;5.22;4.78;;;1.40;67.80;;;;;;5061555;28;20079;-86
2021/03/06 09:16:00;;;;;;;6.78;6.03;;;1.40;69.60;;;;;;5064678;28;20041;-90
2021/03/06 09:18:30;;;;;;;4.13;3.85;;;1.80;67.90;;;;;;5068032;28;20052;-91
2021/03/06 09:21:01;;;;;;;5.93;5.20;;;1.80;66.50;;;;;;5065637;28;20067;-90
2021/03/06 09:23:39;;;;;;;7.97;6.93;;;1.80;68.10;;;;;;5074992;28;20056;-92
2021/03/06 09:26:12;;;;;;;6.57;5.70;;;1.70;67.90;;;;;;5072600;28;20068;-86
2021/03/06 09:28:40;;;;;;;8.32;5.80;;;1.70;68.80;;;;;;5072587;28;20153;-92
2021/03/06 09:31:21;;;;;;;6.82;6.03;;;1.90;65.90;;;;;;5039361;28;20107;-88
2021/03/06 09:33:52;;;;;;;6.32;4.53;;;2.00;69.70;;;;;;5072873;28;20045;-90
2021/03/06 09:36:27;;;;;;;6.63;4.53;;;2.10;66.50;;;;;;5050858;28;20068;-79
2021/03/06 09:38:59;;;;;;;8.65;7.80;;;2.10;67.50;;;;;;5088848;28;20134;-80
2021/03/06 09:41:34;;;;;;;5.88;4.22;;;2.00;65.00;;;;;;5060308;28;20770;-77
2021/03/06 09:44:03;;;;;;;3.85;3.53;;;2.00;66.50;;;;;;5110645;28;20608;-78
2021/03/06 09:46:33;;;;;;;9.65;6.90;;;2.20;66.20;;;;;;5112866;28;20047;-78
2021/03/06 09:49:04;;;;;;;6.15;5.53;;;2.40;66.10;;;;;;5111764;28;20048;-81
2021/03/06 09:51:38;;;;;;;;;;;2.50;64.60;;;;;;5092461;28;20123;-80
2021/03/06 09:54:07;;;;;;;6.15;5.13;;;2.50;63.60;;;;;;5112556;28;19930;-91
2021/03/06 09:56:49;;;;;;;9.15;8.20;;;2.40;68.20;;;;;;5062690;28;20048;-90
2021/03/06 09:59:48;;;;;;;9.68;8.70;;;2.30;63.80;;;;;;5080591;28;20151;-93
2021/03/06 10:02:15;;;;;;;5.65;3.90;;;2.20;65.10;;;;;;5063921;28;20043;-91
2021/03/06 10:04:46;;;;;;;6.72;5.15;;;2.40;67.10;;;;;;5065472;28;20419;-93
2021/03/06 10:07:13;;;;;;;7.75;6.18;;;2.40;67.60;;;;;;5081241;28;20089;-90
2021/03/06 10:09:41;;;;;;;4.95;4.47;;;2.50;64.00;;;;;;5080081;28;20659;-92
2021/03/06 10:12:10;;;;;;;5.68;5.28;;;2.50;63.40;;;;;;5061509;28;20115;-92
2021/03/06 10:14:37;;;;;;;5.88;5.00;;;2.30;63.90;;;;;;5094519;28;20415;-92
2021/03/06 10:17:09;;;;;;;5.38;4.85;;;2.30;62.80;;;;;;5092736;28;20044;-85
2021/03/06 10:19:48;;;;;;;4.85;4.40;;;2.10;63.00;;;;;;5076196;28;20052;-92
2021/03/06 10:22:16;;;;;;;9.25;8.25;;;2.20;64.40;;;;;;5075629;28;20469;-92
2021/03/06 10:24:51;;;;;;;8.40;5.50;;;2.50;63.50;;;;;;5077855;28;20052;-93
2021/03/06 10:27:39;;;;;;;5.18;4.78;;;2.50;64.90;;;;;;5094558;28;20135;-92
2021/03/06 10:30:45;;;;;;;6.82;6.10;;;2.70;63.60;;;;;;5093513;28;20564;-93
2021/03/06 10:33:24;;;;;;;6.82;6.20;;;2.70;66.20;;;;;;5080742;28;20500;-91
2021/03/06 10:35:51;;;;;;;6.07;5.45;;;2.60;64.80;;;;;;5079538;28;20048;-91
2021/03/06 10:38:19;;;;;;;7.53;6.82;;;2.60;66.80;;;;;;5098575;28;20070;-92
2021/03/06 10:40:51;;;;;;;6.32;4.75;;;2.80;65.20;;;;;;5079795;28;20492;-92
2021/03/06 10:43:35;;;;;;;6.97;4.90;;;2.90;64.30;;;;;;5080346;28;20052;-90
2021/03/06 10:46:18;;;;;;;6.93;6.32;;;2.80;63.90;;;;;;5062615;28;20504;-91
2021/03/06 10:48:59;;;;;;;5.90;5.25;;;2.70;64.20;;;;;;5109958;28;20039;-85
2021/03/06 10:51:49;;;;;;;6.93;6.22;;;2.60;65.10;;;;;;5117785;28;20652;-87
2021/03/06 10:54:18;;;;;;;8.18;7.50;;;2.50;64.30;;;;;;5081709;28;20059;-90
2021/03/06 10:56:45;;;;;;;5.15;4.75;;;2.30;64.30;;;;;;5099080;28;20501;-90
2021/03/06 10:59:52;;;;;;;7.00;5.57;;;2.50;68.80;;;;;;5100310;28;20075;-87
2021/03/06 11:02:30;;;;;;;10.13;8.10;;;2.60;65.40;;;;;;5098257;28;20127;-91
2021/03/06 11:05:20;;;;;;;6.68;5.43;;;2.50;67.90;;;;;;5098885;28;20064;-91
2021/03/06 11:07:47;;;;;;;7.18;5.95;;;2.70;63.00;;;;;;5117190;28;20126;-87
2021/03/06 11:10:19;;;;;;;8.63;7.72;;;2.60;64.90;;;;;;5097715;28;20047;-88
2021/03/06 11:12:54;;;;;;;6.63;4.95;;;2.70;70.40;;;;;;5098381;28;20081;-82
2021/03/06 11:15:24;;;;;;;6.18;5.57;;;2.70;67.30;;;;;;5083588;28;20054;-83
2021/03/06 11:17:55;;;;;;;5.03;4.63;;;2.90;65.80;;;;;;5098692;28;20036;-85
2021/03/06 11:20:29;;;;;;;5.80;5.00;;;2.80;63.80;;;;;;5091369;28;20043;-81
2021/03/06 11:23:00;;;;;;;7.40;5.13;;;2.60;63.60;;;;;;5077910;28;20576;-88
2021/03/06 11:25:27;;;;;;;6.53;5.40;;;2.70;64.30;;;;;;5073441;28;20044;-85
2021/03/06 11:28:25;;;;;;;6.88;6.13;;;2.80;65.90;;;;;;5096606;28;20449;-89
2021/03/06 11:30:53;;;;;;;5.72;5.22;;;2.80;64.20;;;;;;5081237;28;20051;-87
2021/03/06 11:33:20;;;;;;;5.30;4.80;;;2.80;63.50;;;;;;5085879;28;20036;-87
2021/03/06 11:35:50;;;;;;;6.63;6.03;;;2.80;67.00;;;;;;5094417;28;20048;-87
2021/03/06 11:38:19;;;;;;;5.72;4.97;;;2.90;65.50;;;;;;5096095;28;20720;-87
2021/03/06 11:40:49;;;;;;;6.78;6.25;;;2.80;64.10;;;;;;5061111;28;20068;-85
2021/03/06 11:43:18;;;;;;;8.45;6.00;;;2.80;66.40;;;;;;5082794;28;20048;-85
2021/03/06 11:45:45;;;;;;;10.75;9.80;;;2.90;63.90;;;;;;5082956;28;20044;-84
2021/03/06 11:48:12;;;;;;;7.75;7.13;;;3.10;64.30;;;;;;5098540;28;20039;-85
2021/03/06 11:50:44;;;;;;;11.77;10.50;;;3.10;63.50;;;;;;5081103;28;20566;-86
2021/03/06 11:53:13;;;;;;;13.52;11.02;;;3.20;64.90;;;;;;5080688;28;20066;-86
2021/03/06 11:55:40;;;;;;;5.90;5.28;;;3.10;65.10;;;;;;5097676;28;20048;-84
2021/03/06 11:58:07;;;;;;;4.20;3.80;;;2.90;67.40;;;;;;5080398;28;20040;-84
2021/03/06 12:00:36;;;;;;;9.13;8.32;;;2.90;67.50;;;;;;5080486;28;20054;-84
2021/03/06 12:03:05;;;;;;;5.20;4.50;;;2.90;65.30;;;;;;5115967;28;20044;-85
2021/03/06 12:05:32;;;;;;;7.65;6.55;;;3.00;68.10;;;;;;5078640;28;20136;-85
2021/03/06 12:07:59;;;;;;;7.25;6.63;;;3.00;64.50;;;;;;5115396;27;20070;-85
2021/03/06 12:10:28;;;;;;;4.80;4.40;;;2.90;64.20;;;;;;5107834;28;20127;-85
2021/03/06 12:12:56;;;;;;;7.32;5.80;;;2.90;64.80;;;;;;5054182;28;20119;-85
2021/03/06 12:15:24;;;;;;;8.57;6.28;;;3.00;69.40;;;;;;5059051;28;20135;-86
2021/03/06 12:17:52;;;;;;;5.18;4.68;;;3.30;69.60;;;;;;5090351;28;20048;-86
2021/03/06 12:20:19;;;;;;;5.55;5.07;;;3.20;65.80;;;;;;5061628;28;20063;-84
2021/03/06 12:22:50;;;;;;;4.88;4.50;;;3.10;67.80;;;;;;5086672;28;20089;-84
2021/03/06 12:25:19;;;;;;;5.47;4.97;;;3.20;65.30;;;;;;5094575;28;20464;-85
2021/03/06 12:27:46;;;;;;;8.65;7.75;;;3.20;64.90;;;;;;5060597;28;20044;-85
2021/03/06 12:30:15;;;;;;;6.15;5.30;;;3.50;64.60;;;;;;5094286;28;20146;-85
2021/03/06 12:32:44;;;;;;;9.93;8.38;;;3.40;67.70;;;;;;5098406;28;20745;-86
2021/03/06 12:35:11;;;;;;;8.18;7.45;;;3.50;64.20;;;;;;5076571;28;20040;-86
2021/03/06 12:37:38;;;;;;;11.23;9.13;;;3.50;62.80;;;;;;5076016;28;20058;-84
2021/03/06 12:40:07;;;;;;;5.00;4.22;;;3.50;62.30;;;;;;5094535;28;20547;-86
2021/03/06 12:42:35;;;;;;;6.03;5.03;;;3.40;66.30;;;;;;5076544;28;20076;-85
2021/03/06 12:45:05;;;;;;;5.90;5.43;;;3.60;64.10;;;;;;5093872;28;20420;-86
2021/03/06 12:47:31;;;;;;;6.22;5.65;;;3.50;66.30;;;;;;5077755;28;20494;-87
2021/03/06 12:50:00;;;;;;;4.55;4.15;;;3.70;64.40;;;;;;5087763;28;20057;-86
2021/03/06 12:52:26;;;;;;;9.30;6.93;;;3.60;65.00;;;;;;5078570;28;20479;-86
2021/03/06 12:54:53;;;;;;;8.98;8.07;;;3.60;62.50;;;;;;5095794;28;20042;-86
2021/03/06 12:57:20;;;;;;;6.07;5.53;;;3.50;62.50;;;;;;5096078;28;20047;-87
2021/03/06 13:00:25;;;;;;;7.00;6.28;;;3.40;63.80;;;;;;5115118;28;20051;-87
2021/03/06 13:02:56;;;;;;;6.22;5.43;;;3.40;63.00;;;;;;5079575;28;20280;-88
2021/03/06 13:05:25;;;;;;;4.80;4.38;;;3.40;65.50;;;;;;5092471;28;20052;-86
2021/03/06 13:07:52;;;;;;;7.43;5.78;;;3.70;63.70;;;;;;5109975;28;20048;-87
2021/03/06 13:10:19;;;;;;;6.22;4.75;;;3.90;64.60;;;;;;5114781;28;20059;-87
2021/03/06 13:12:46;;;;;;;5.10;4.57;;;3.90;60.90;;;;;;5095960;28;20089;-86
2021/03/06 13:15:15;;;;;;;7.05;6.40;;;4.00;62.40;;;;;;5096362;28;20055;-87